Ryan, Iowa
Current Conditions -  °F | °C
As of 4:15 AM on Thursday 27 Nov 2014 (Local Time) from KMXO Reporting Station
Overcast Overcast  
Wind Chill: 10°   Ceiling: 2300
Heat Index: 23°   Visibility: 10mi
Dew Point: 19°   Wind: 15mph
Humidity: 86%   Direction: 310°NW
Pressure: 30.33"   Gusts: 21mph
Location:  42.35°N, 91.48°W
Report Text: KMXO 271015Z AUTO 31013G18KT 10SM SCT018 BKN023 OVC038 M05/M07 A3033 RMK AO2
Loading
Personal Weather Stations






























Interactive Weather Map New forecast layout! Learn more

10-Day Weather Forecast

Advertisements
Track Severe Weather on mobile